sensor_id;sensor_type;location;lat;lon;timestamp;P1;durP1;ratioP1;P2;durP2;ratioP2
76582;SDS011;65462;52.148;7.940;2022-12-07T00:01:07;17.67;;;11.27;;
76582;SDS011;65462;52.148;7.940;2022-12-07T00:03:34;15.70;;;10.90;;
76582;SDS011;65462;52.148;7.940;2022-12-07T00:06:01;17.53;;;11.20;;
76582;SDS011;65462;52.148;7.940;2022-12-07T00:08:27;15.53;;;10.77;;
76582;SDS011;65462;52.148;7.940;2022-12-07T00:10:52;16.97;;;10.40;;
76582;SDS011;65462;52.148;7.940;2022-12-07T00:13:17;16.03;;;10.53;;
76582;SDS011;65462;52.148;7.940;2022-12-07T00:15:43;15.00;;;10.70;;
76582;SDS011;65462;52.148;7.940;2022-12-07T00:18:09;15.23;;;10.23;;
76582;SDS011;65462;52.148;7.940;2022-12-07T00:20:34;15.63;;;10.37;;
76582;SDS011;65462;52.148;7.940;2022-12-07T00:22:59;13.93;;;9.33;;
76582;SDS011;65462;52.148;7.940;2022-12-07T00:25:25;11.67;;;9.03;;
76582;SDS011;65462;52.148;7.940;2022-12-07T00:27:52;14.33;;;9.17;;
76582;SDS011;65462;52.148;7.940;2022-12-07T00:30:18;13.70;;;8.87;;
76582;SDS011;65462;52.148;7.940;2022-12-07T00:32:43;13.83;;;8.57;;
76582;SDS011;65462;52.148;7.940;2022-12-07T00:35:09;11.83;;;8.00;;
76582;SDS011;65462;52.148;7.940;2022-12-07T00:37:34;12.87;;;8.10;;
76582;SDS011;65462;52.148;7.940;2022-12-07T00:39:59;13.53;;;8.43;;
76582;SDS011;65462;52.148;7.940;2022-12-07T00:42:24;11.20;;;7.60;;
76582;SDS011;65462;52.148;7.940;2022-12-07T00:44:50;11.00;;;8.30;;
76582;SDS011;65462;52.148;7.940;2022-12-07T00:47:15;15.27;;;9.20;;
76582;SDS011;65462;52.148;7.940;2022-12-07T00:49:40;10.70;;;8.20;;
76582;SDS011;65462;52.148;7.940;2022-12-07T00:52:06;13.37;;;8.37;;
76582;SDS011;65462;52.148;7.940;2022-12-07T00:54:31;16.33;;;8.20;;
76582;SDS011;65462;52.148;7.940;2022-12-07T00:56:56;13.13;;;8.97;;
76582;SDS011;65462;52.148;7.940;2022-12-07T00:59:21;12.13;;;8.47;;
76582;SDS011;65462;52.148;7.940;2022-12-07T01:01:46;11.60;;;8.87;;
76582;SDS011;65462;52.148;7.940;2022-12-07T01:04:12;12.57;;;8.33;;
76582;SDS011;65462;52.148;7.940;2022-12-07T01:06:38;12.60;;;8.77;;
76582;SDS011;65462;52.148;7.940;2022-12-07T01:09:03;11.23;;;8.10;;
76582;SDS011;65462;52.148;7.940;2022-12-07T01:11:30;12.93;;;8.63;;
76582;SDS011;65462;52.148;7.940;2022-12-07T01:13:56;10.27;;;8.00;;
76582;SDS011;65462;52.148;7.940;2022-12-07T01:16:24;13.27;;;7.60;;
76582;SDS011;65462;52.148;7.940;2022-12-07T01:18:51;11.13;;;7.93;;
76582;SDS011;65462;52.148;7.940;2022-12-07T01:21:21;11.17;;;7.80;;
76582;SDS011;65462;52.148;7.940;2022-12-07T01:23:54;12.05;;;8.25;;
76582;SDS011;65462;52.148;7.940;2022-12-07T01:26:23;11.73;;;7.53;;
76582;SDS011;65462;52.148;7.940;2022-12-07T01:28:49;10.40;;;7.40;;
76582;SDS011;65462;52.148;7.940;2022-12-07T01:31:16;10.63;;;7.50;;
76582;SDS011;65462;52.148;7.940;2022-12-07T01:33:44;10.47;;;7.97;;
76582;SDS011;65462;52.148;7.940;2022-12-07T01:36:15;10.43;;;6.80;;
76582;SDS011;65462;52.148;7.940;2022-12-07T01:38:45;14.95;;;7.40;;
76582;SDS011;65462;52.148;7.940;2022-12-07T01:41:12;8.93;;;6.80;;
76582;SDS011;65462;52.148;7.940;2022-12-07T01:44:06;9.50;;;7.23;;
76582;SDS011;65462;52.148;7.940;2022-12-07T01:46:42;9.70;;;6.37;;
76582;SDS011;65462;52.148;7.940;2022-12-07T01:49:11;9.93;;;6.70;;
76582;SDS011;65462;52.148;7.940;2022-12-07T01:54:43;10.13;;;7.15;;
76582;SDS011;65462;52.148;7.940;2022-12-07T01:57:09;11.53;;;6.47;;
76582;SDS011;65462;52.148;7.940;2022-12-07T01:59:36;8.20;;;5.87;;
76582;SDS011;65462;52.148;7.940;2022-12-07T02:02:03;10.03;;;6.73;;
76582;SDS011;65462;52.148;7.940;2022-12-07T02:04:35;9.97;;;6.07;;
76582;SDS011;65462;52.148;7.940;2022-12-07T02:07:01;8.33;;;6.07;;
76582;SDS011;65462;52.148;7.940;2022-12-07T02:09:28;9.43;;;6.37;;
76582;SDS011;65462;52.148;7.940;2022-12-07T02:11:53;9.97;;;6.30;;
76582;SDS011;65462;52.148;7.940;2022-12-07T02:14:20;7.60;;;6.07;;
76582;SDS011;65462;52.148;7.940;2022-12-07T02:17:01;8.00;;;5.73;;
76582;SDS011;65462;52.148;7.940;2022-12-07T02:22:25;8.63;;;5.93;;
76582;SDS011;65462;52.148;7.940;2022-12-07T02:27:50;7.87;;;5.90;;
76582;SDS011;65462;52.148;7.940;2022-12-07T02:30:21;8.80;;;6.35;;
76582;SDS011;65462;52.148;7.940;2022-12-07T02:35:35;7.20;;;5.30;;
76582;SDS011;65462;52.148;7.940;2022-12-07T02:43:28;8.30;;;5.67;;
76582;SDS011;65462;52.148;7.940;2022-12-07T02:46:05;7.00;;;5.17;;
76582;SDS011;65462;52.148;7.940;2022-12-07T02:48:33;8.60;;;5.40;;
76582;SDS011;65462;52.148;7.940;2022-12-07T02:50:59;6.97;;;5.50;;
76582;SDS011;65462;52.148;7.940;2022-12-07T02:53:28;9.30;;;5.57;;
76582;SDS011;65462;52.148;7.940;2022-12-07T02:55:55;8.47;;;5.30;;
76582;SDS011;65462;52.148;7.940;2022-12-07T02:58:23;8.67;;;5.73;;
76582;SDS011;65462;52.148;7.940;2022-12-07T03:01:03;8.73;;;5.20;;
76582;SDS011;65462;52.148;7.940;2022-12-07T03:03:39;9.10;;;5.60;;
76582;SDS011;65462;52.148;7.940;2022-12-07T03:06:15;7.80;;;5.53;;
76582;SDS011;65462;52.148;7.940;2022-12-07T03:08:59;9.33;;;5.40;;
76582;SDS011;65462;52.148;7.940;2022-12-07T03:12:21;7.17;;;5.10;;
76582;SDS011;65462;52.148;7.940;2022-12-07T03:14:35;7.00;;;4.87;;
76582;SDS011;65462;52.148;7.940;2022-12-07T03:17:14;8.80;;;5.63;;
76582;SDS011;65462;52.148;7.940;2022-12-07T03:19:46;9.33;;;5.00;;
76582;SDS011;65462;52.148;7.940;2022-12-07T03:22:14;7.87;;;4.90;;
76582;SDS011;65462;52.148;7.940;2022-12-07T03:24:51;8.43;;;5.23;;
76582;SDS011;65462;52.148;7.940;2022-12-07T03:27:20;9.07;;;5.37;;
76582;SDS011;65462;52.148;7.940;2022-12-07T03:29:50;9.40;;;5.53;;
76582;SDS011;65462;52.148;7.940;2022-12-07T03:34:58;8.80;;;5.20;;
76582;SDS011;65462;52.148;7.940;2022-12-07T03:37:33;8.03;;;5.13;;
76582;SDS011;65462;52.148;7.940;2022-12-07T03:40:12;13.20;;;5.77;;
76582;SDS011;65462;52.148;7.940;2022-12-07T03:42:42;9.53;;;5.10;;
76582;SDS011;65462;52.148;7.940;2022-12-07T03:45:07;9.70;;;4.83;;
76582;SDS011;65462;52.148;7.940;2022-12-07T03:47:38;7.90;;;4.77;;
76582;SDS011;65462;52.148;7.940;2022-12-07T03:53:09;10.63;;;4.53;;
76582;SDS011;65462;52.148;7.940;2022-12-07T03:55:41;7.97;;;4.83;;
76582;SDS011;65462;52.148;7.940;2022-12-07T03:58:10;6.80;;;4.70;;
76582;SDS011;65462;52.148;7.940;2022-12-07T04:00:37;6.67;;;4.20;;
76582;SDS011;65462;52.148;7.940;2022-12-07T04:03:03;8.33;;;4.47;;
76582;SDS011;65462;52.148;7.940;2022-12-07T04:05:28;6.33;;;4.80;;
76582;SDS011;65462;52.148;7.940;2022-12-07T04:07:54;8.63;;;5.03;;
76582;SDS011;65462;52.148;7.940;2022-12-07T04:10:19;6.80;;;4.60;;
76582;SDS011;65462;52.148;7.940;2022-12-07T04:12:44;7.47;;;4.53;;
76582;SDS011;65462;52.148;7.940;2022-12-07T04:15:10;7.20;;;4.60;;
76582;SDS011;65462;52.148;7.940;2022-12-07T04:17:35;6.43;;;4.43;;
76582;SDS011;65462;52.148;7.940;2022-12-07T04:20:00;9.60;;;4.50;;
76582;SDS011;65462;52.148;7.940;2022-12-07T04:22:26;7.53;;;4.67;;
76582;SDS011;65462;52.148;7.940;2022-12-07T04:24:51;8.43;;;4.50;;
76582;SDS011;65462;52.148;7.940;2022-12-07T04:27:17;5.63;;;4.30;;
76582;SDS011;65462;52.148;7.940;2022-12-07T04:29:42;9.23;;;4.37;;
76582;SDS011;65462;52.148;7.940;2022-12-07T04:32:07;6.20;;;4.20;;
76582;SDS011;65462;52.148;7.940;2022-12-07T04:34:33;9.53;;;4.30;;
76582;SDS011;65462;52.148;7.940;2022-12-07T04:36:58;7.83;;;4.07;;
76582;SDS011;65462;52.148;7.940;2022-12-07T04:39:27;7.37;;;4.13;;
76582;SDS011;65462;52.148;7.940;2022-12-07T04:41:53;9.67;;;4.63;;
76582;SDS011;65462;52.148;7.940;2022-12-07T04:44:19;8.43;;;4.17;;
76582;SDS011;65462;52.148;7.940;2022-12-07T04:46:46;8.70;;;4.13;;
76582;SDS011;65462;52.148;7.940;2022-12-07T04:49:11;6.27;;;3.93;;
76582;SDS011;65462;52.148;7.940;2022-12-07T04:51:37;6.10;;;4.17;;
76582;SDS011;65462;52.148;7.940;2022-12-07T04:54:02;10.10;;;4.00;;
76582;SDS011;65462;52.148;7.940;2022-12-07T04:56:28;7.17;;;3.50;;
76582;SDS011;65462;52.148;7.940;2022-12-07T04:58:53;6.10;;;3.97;;
76582;SDS011;65462;52.148;7.940;2022-12-07T05:01:19;5.93;;;3.90;;
76582;SDS011;65462;52.148;7.940;2022-12-07T05:03:46;5.50;;;3.53;;
76582;SDS011;65462;52.148;7.940;2022-12-07T05:06:11;6.73;;;3.43;;
76582;SDS011;65462;52.148;7.940;2022-12-07T05:08:37;7.43;;;3.33;;
76582;SDS011;65462;52.148;7.940;2022-12-07T05:11:03;7.73;;;3.77;;
76582;SDS011;65462;52.148;7.940;2022-12-07T05:13:30;7.07;;;3.27;;
76582;SDS011;65462;52.148;7.940;2022-12-07T05:15:55;9.10;;;3.40;;
76582;SDS011;65462;52.148;7.940;2022-12-07T05:18:21;5.07;;;3.27;;
76582;SDS011;65462;52.148;7.940;2022-12-07T05:20:46;7.33;;;3.20;;
76582;SDS011;65462;52.148;7.940;2022-12-07T05:23:11;6.40;;;3.40;;
76582;SDS011;65462;52.148;7.940;2022-12-07T05:25:37;6.93;;;3.50;;
76582;SDS011;65462;52.148;7.940;2022-12-07T05:28:03;7.53;;;3.40;;
76582;SDS011;65462;52.148;7.940;2022-12-07T05:30:29;7.80;;;3.20;;
76582;SDS011;65462;52.148;7.940;2022-12-07T05:32:55;4.83;;;3.10;;
76582;SDS011;65462;52.148;7.940;2022-12-07T05:35:21;7.83;;;2.97;;
76582;SDS011;65462;52.148;7.940;2022-12-07T05:37:46;7.80;;;4.30;;
76582;SDS011;65462;52.148;7.940;2022-12-07T05:40:11;5.13;;;3.13;;
76582;SDS011;65462;52.148;7.940;2022-12-07T05:42:38;8.70;;;3.30;;
76582;SDS011;65462;52.148;7.940;2022-12-07T05:45:04;6.60;;;3.00;;
76582;SDS011;65462;52.148;7.940;2022-12-07T05:47:30;4.33;;;2.80;;
76582;SDS011;65462;52.148;7.940;2022-12-07T05:49:55;6.30;;;2.63;;
76582;SDS011;65462;52.148;7.940;2022-12-07T05:52:20;6.43;;;2.93;;
76582;SDS011;65462;52.148;7.940;2022-12-07T05:54:46;4.73;;;2.90;;
76582;SDS011;65462;52.148;7.940;2022-12-07T05:57:11;4.47;;;2.43;;
76582;SDS011;65462;52.148;7.940;2022-12-07T05:59:37;5.83;;;2.67;;
76582;SDS011;65462;52.148;7.940;2022-12-07T06:02:04;4.37;;;2.57;;
76582;SDS011;65462;52.148;7.940;2022-12-07T06:04:34;5.30;;;2.40;;
76582;SDS011;65462;52.148;7.940;2022-12-07T06:07:02;5.70;;;2.50;;
76582;SDS011;65462;52.148;7.940;2022-12-07T06:09:28;4.07;;;2.40;;
76582;SDS011;65462;52.148;7.940;2022-12-07T06:11:53;6.97;;;2.37;;
76582;SDS011;65462;52.148;7.940;2022-12-07T06:14:38;6.22;;;2.47;;
76582;SDS011;65462;52.148;7.940;2022-12-07T06:17:04;5.73;;;2.70;;
76582;SDS011;65462;52.148;7.940;2022-12-07T06:19:30;7.33;;;2.43;;
76582;SDS011;65462;52.148;7.940;2022-12-07T06:21:55;5.07;;;2.40;;
76582;SDS011;65462;52.148;7.940;2022-12-07T06:24:21;4.50;;;2.37;;
76582;SDS011;65462;52.148;7.940;2022-12-07T06:26:46;5.20;;;2.60;;
76582;SDS011;65462;52.148;7.940;2022-12-07T06:29:12;4.60;;;2.17;;
76582;SDS011;65462;52.148;7.940;2022-12-07T06:31:37;5.73;;;3.00;;
76582;SDS011;65462;52.148;7.940;2022-12-07T06:34:04;5.73;;;2.17;;
76582;SDS011;65462;52.148;7.940;2022-12-07T06:36:31;6.53;;;2.43;;
76582;SDS011;65462;52.148;7.940;2022-12-07T06:38:57;4.53;;;2.40;;
76582;SDS011;65462;52.148;7.940;2022-12-07T06:41:22;5.23;;;2.43;;
76582;SDS011;65462;52.148;7.940;2022-12-07T06:43:48;7.30;;;2.53;;
76582;SDS011;65462;52.148;7.940;2022-12-07T06:46:14;7.30;;;2.37;;
76582;SDS011;65462;52.148;7.940;2022-12-07T06:48:40;5.20;;;2.10;;
76582;SDS011;65462;52.148;7.940;2022-12-07T06:51:06;5.57;;;2.00;;
76582;SDS011;65462;52.148;7.940;2022-12-07T06:53:31;4.97;;;1.90;;
76582;SDS011;65462;52.148;7.940;2022-12-07T06:55:57;8.27;;;2.33;;
76582;SDS011;65462;52.148;7.940;2022-12-07T06:58:22;5.10;;;2.23;;
76582;SDS011;65462;52.148;7.940;2022-12-07T07:00:48;5.30;;;2.07;;
76582;SDS011;65462;52.148;7.940;2022-12-07T07:03:14;5.33;;;1.90;;
76582;SDS011;65462;52.148;7.940;2022-12-07T07:05:40;5.17;;;2.03;;
76582;SDS011;65462;52.148;7.940;2022-12-07T07:08:06;3.83;;;1.80;;
76582;SDS011;65462;52.148;7.940;2022-12-07T07:10:32;6.73;;;1.77;;
76582;SDS011;65462;52.148;7.940;2022-12-07T07:12:57;6.30;;;1.80;;
76582;SDS011;65462;52.148;7.940;2022-12-07T07:15:22;3.23;;;1.87;;
76582;SDS011;65462;52.148;7.940;2022-12-07T07:17:48;4.70;;;1.80;;
76582;SDS011;65462;52.148;7.940;2022-12-07T07:20:13;6.00;;;1.90;;
76582;SDS011;65462;52.148;7.940;2022-12-07T07:22:38;5.60;;;2.10;;
76582;SDS011;65462;52.148;7.940;2022-12-07T07:25:04;4.47;;;2.07;;
76582;SDS011;65462;52.148;7.940;2022-12-07T07:27:29;4.80;;;1.87;;
76582;SDS011;65462;52.148;7.940;2022-12-07T07:29:54;4.77;;;1.90;;
76582;SDS011;65462;52.148;7.940;2022-12-07T07:32:20;4.63;;;2.37;;
76582;SDS011;65462;52.148;7.940;2022-12-07T07:34:46;4.17;;;1.70;;
76582;SDS011;65462;52.148;7.940;2022-12-07T07:37:12;9.17;;;2.07;;
76582;SDS011;65462;52.148;7.940;2022-12-07T07:39:37;5.37;;;1.90;;
76582;SDS011;65462;52.148;7.940;2022-12-07T07:42:03;6.07;;;1.90;;
76582;SDS011;65462;52.148;7.940;2022-12-07T07:44:28;3.83;;;2.30;;
76582;SDS011;65462;52.148;7.940;2022-12-07T07:46:54;4.40;;;1.63;;
76582;SDS011;65462;52.148;7.940;2022-12-07T07:49:19;4.47;;;2.33;;
76582;SDS011;65462;52.148;7.940;2022-12-07T07:51:44;3.70;;;1.90;;
76582;SDS011;65462;52.148;7.940;2022-12-07T07:54:09;6.23;;;2.00;;
76582;SDS011;65462;52.148;7.940;2022-12-07T07:56:35;6.90;;;1.90;;
76582;SDS011;65462;52.148;7.940;2022-12-07T07:59:00;8.40;;;2.10;;
76582;SDS011;65462;52.148;7.940;2022-12-07T08:01:25;3.57;;;2.10;;
76582;SDS011;65462;52.148;7.940;2022-12-07T08:03:51;5.03;;;1.90;;
76582;SDS011;65462;52.148;7.940;2022-12-07T08:06:16;5.97;;;2.10;;
76582;SDS011;65462;52.148;7.940;2022-12-07T08:08:41;4.83;;;2.10;;
76582;SDS011;65462;52.148;7.940;2022-12-07T08:11:08;4.47;;;2.00;;
76582;SDS011;65462;52.148;7.940;2022-12-07T08:13:34;5.63;;;2.00;;
76582;SDS011;65462;52.148;7.940;2022-12-07T08:16:03;7.03;;;2.33;;
76582;SDS011;65462;52.148;7.940;2022-12-07T08:18:29;3.47;;;2.17;;
76582;SDS011;65462;52.148;7.940;2022-12-07T08:21:01;4.33;;;2.13;;
76582;SDS011;65462;52.148;7.940;2022-12-07T08:23:27;6.93;;;2.73;;
76582;SDS011;65462;52.148;7.940;2022-12-07T08:25:52;4.73;;;2.00;;
76582;SDS011;65462;52.148;7.940;2022-12-07T08:28:18;3.70;;;1.93;;
76582;SDS011;65462;52.148;7.940;2022-12-07T08:30:43;5.83;;;1.77;;
76582;SDS011;65462;52.148;7.940;2022-12-07T08:33:08;2.83;;;1.57;;
76582;SDS011;65462;52.148;7.940;2022-12-07T08:35:35;2.53;;;1.50;;
76582;SDS011;65462;52.148;7.940;2022-12-07T08:38:00;4.97;;;1.80;;
76582;SDS011;65462;52.148;7.940;2022-12-07T08:40:27;6.37;;;1.73;;
76582;SDS011;65462;52.148;7.940;2022-12-07T08:42:52;4.80;;;1.80;;
76582;SDS011;65462;52.148;7.940;2022-12-07T08:45:18;4.47;;;1.63;;
76582;SDS011;65462;52.148;7.940;2022-12-07T08:50:18;7.82;;;2.08;;
76582;SDS011;65462;52.148;7.940;2022-12-07T08:52:44;4.13;;;1.70;;
76582;SDS011;65462;52.148;7.940;2022-12-07T08:55:12;5.23;;;1.50;;
76582;SDS011;65462;52.148;7.940;2022-12-07T08:57:38;4.07;;;1.60;;
76582;SDS011;65462;52.148;7.940;2022-12-07T09:00:04;4.57;;;1.53;;
76582;SDS011;65462;52.148;7.940;2022-12-07T09:02:31;5.63;;;1.57;;
76582;SDS011;65462;52.148;7.940;2022-12-07T09:04:56;4.50;;;1.53;;
76582;SDS011;65462;52.148;7.940;2022-12-07T09:07:21;3.50;;;1.33;;
76582;SDS011;65462;52.148;7.940;2022-12-07T09:09:47;3.67;;;1.40;;
76582;SDS011;65462;52.148;7.940;2022-12-07T09:12:12;5.13;;;1.70;;
76582;SDS011;65462;52.148;7.940;2022-12-07T09:14:37;4.70;;;1.53;;
76582;SDS011;65462;52.148;7.940;2022-12-07T09:17:06;5.70;;;1.93;;
76582;SDS011;65462;52.148;7.940;2022-12-07T09:19:33;8.00;;;1.77;;
76582;SDS011;65462;52.148;7.940;2022-12-07T09:21:58;7.67;;;2.07;;
76582;SDS011;65462;52.148;7.940;2022-12-07T09:24:23;6.33;;;1.70;;
76582;SDS011;65462;52.148;7.940;2022-12-07T09:26:48;5.27;;;1.67;;
76582;SDS011;65462;52.148;7.940;2022-12-07T09:29:14;8.13;;;1.97;;
76582;SDS011;65462;52.148;7.940;2022-12-07T09:31:39;5.70;;;1.87;;
76582;SDS011;65462;52.148;7.940;2022-12-07T09:34:05;8.40;;;1.70;;
76582;SDS011;65462;52.148;7.940;2022-12-07T09:36:30;5.13;;;1.37;;
76582;SDS011;65462;52.148;7.940;2022-12-07T09:38:56;7.40;;;1.60;;
76582;SDS011;65462;52.148;7.940;2022-12-07T09:41:22;4.77;;;1.20;;
76582;SDS011;65462;52.148;7.940;2022-12-07T09:43:48;5.20;;;1.60;;
76582;SDS011;65462;52.148;7.940;2022-12-07T09:46:15;5.13;;;1.20;;
76582;SDS011;65462;52.148;7.940;2022-12-07T09:48:43;5.70;;;1.40;;
76582;SDS011;65462;52.148;7.940;2022-12-07T09:51:13;4.80;;;1.40;;
76582;SDS011;65462;52.148;7.940;2022-12-07T09:53:42;8.73;;;1.67;;
76582;SDS011;65462;52.148;7.940;2022-12-07T09:56:09;5.10;;;1.50;;
76582;SDS011;65462;52.148;7.940;2022-12-07T09:58:38;4.80;;;1.60;;
76582;SDS011;65462;52.148;7.940;2022-12-07T10:01:11;3.83;;;1.30;;
76582;SDS011;65462;52.148;7.940;2022-12-07T10:04:08;4.40;;;1.30;;
76582;SDS011;65462;52.148;7.940;2022-12-07T10:06:27;5.53;;;1.20;;
76582;SDS011;65462;52.148;7.940;2022-12-07T10:08:52;9.00;;;1.40;;
76582;SDS011;65462;52.148;7.940;2022-12-07T10:11:18;5.70;;;1.37;;
76582;SDS011;65462;52.148;7.940;2022-12-07T10:13:44;5.67;;;1.33;;
76582;SDS011;65462;52.148;7.940;2022-12-07T10:19:18;3.83;;;1.40;;
76582;SDS011;65462;52.148;7.940;2022-12-07T10:22:11;6.90;;;1.23;;
76582;SDS011;65462;52.148;7.940;2022-12-07T10:24:41;4.07;;;1.37;;
76582;SDS011;65462;52.148;7.940;2022-12-07T10:27:21;5.73;;;1.60;;
76582;SDS011;65462;52.148;7.940;2022-12-07T10:29:52;5.20;;;1.53;;
76582;SDS011;65462;52.148;7.940;2022-12-07T10:34:43;2.50;;;1.10;;
76582;SDS011;65462;52.148;7.940;2022-12-07T10:39:44;3.77;;;1.03;;
76582;SDS011;65462;52.148;7.940;2022-12-07T10:42:32;6.43;;;1.70;;
76582;SDS011;65462;52.148;7.940;2022-12-07T10:45:13;6.33;;;1.10;;
76582;SDS011;65462;52.148;7.940;2022-12-07T10:48:00;5.70;;;1.00;;
76582;SDS011;65462;52.148;7.940;2022-12-07T10:59:49;7.60;;;1.50;;
76582;SDS011;65462;52.148;7.940;2022-12-07T11:13:18;3.77;;;1.20;;
76582;SDS011;65462;52.148;7.940;2022-12-07T11:15:53;6.00;;;1.40;;
76582;SDS011;65462;52.148;7.940;2022-12-07T11:18:32;6.60;;;1.50;;
76582;SDS011;65462;52.148;7.940;2022-12-07T11:23:48;3.63;;;1.20;;
76582;SDS011;65462;52.148;7.940;2022-12-07T11:38:55;5.23;;;1.07;;
76582;SDS011;65462;52.148;7.940;2022-12-07T11:41:09;5.23;;;1.40;;
76582;SDS011;65462;52.148;7.940;2022-12-07T11:43:37;6.37;;;1.13;;
76582;SDS011;65462;52.148;7.940;2022-12-07T11:46:29;3.60;;;1.17;;
76582;SDS011;65462;52.148;7.940;2022-12-07T11:49:24;3.70;;;1.25;;
76582;SDS011;65462;52.148;7.940;2022-12-07T11:53:02;4.78;;;1.30;;
76582;SDS011;65462;52.148;7.940;2022-12-07T11:55:27;6.23;;;1.50;;
76582;SDS011;65462;52.148;7.940;2022-12-07T11:58:03;3.90;;;1.10;;
76582;SDS011;65462;52.148;7.940;2022-12-07T12:00:34;5.17;;;1.00;;
76582;SDS011;65462;52.148;7.940;2022-12-07T12:03:04;3.43;;;1.33;;
76582;SDS011;65462;52.148;7.940;2022-12-07T12:05:40;2.27;;;0.90;;
76582;SDS011;65462;52.148;7.940;2022-12-07T12:08:11;3.60;;;0.80;;
76582;SDS011;65462;52.148;7.940;2022-12-07T12:18:36;4.60;;;1.63;;
76582;SDS011;65462;52.148;7.940;2022-12-07T12:21:14;6.10;;;1.40;;
76582;SDS011;65462;52.148;7.940;2022-12-07T12:23:43;5.23;;;1.07;;
76582;SDS011;65462;52.148;7.940;2022-12-07T12:26:14;5.00;;;1.20;;
76582;SDS011;65462;52.148;7.940;2022-12-07T12:31:15;2.90;;;1.20;;
76582;SDS011;65462;52.148;7.940;2022-12-07T12:33:44;2.63;;;1.07;;
76582;SDS011;65462;52.148;7.940;2022-12-07T12:44:01;7.10;;;1.30;;
76582;SDS011;65462;52.148;7.940;2022-12-07T12:51:41;5.63;;;1.20;;
76582;SDS011;65462;52.148;7.940;2022-12-07T12:54:18;4.37;;;1.30;;
76582;SDS011;65462;52.148;7.940;2022-12-07T12:59:57;5.87;;;1.60;;
76582;SDS011;65462;52.148;7.940;2022-12-07T13:12:56;6.73;;;1.47;;
76582;SDS011;65462;52.148;7.940;2022-12-07T13:18:03;3.27;;;1.03;;
76582;SDS011;65462;52.148;7.940;2022-12-07T13:20:48;7.03;;;1.27;;
76582;SDS011;65462;52.148;7.940;2022-12-07T13:23:35;7.93;;;1.70;;
76582;SDS011;65462;52.148;7.940;2022-12-07T13:28:49;5.40;;;1.30;;
76582;SDS011;65462;52.148;7.940;2022-12-07T13:31:19;4.00;;;0.97;;
76582;SDS011;65462;52.148;7.940;2022-12-07T13:33:53;5.23;;;1.30;;
76582;SDS011;65462;52.148;7.940;2022-12-07T13:36:28;5.73;;;1.33;;
76582;SDS011;65462;52.148;7.940;2022-12-07T13:39:01;3.13;;;1.10;;
76582;SDS011;65462;52.148;7.940;2022-12-07T13:41:42;5.43;;;1.23;;
76582;SDS011;65462;52.148;7.940;2022-12-07T13:44:14;3.27;;;0.87;;
76582;SDS011;65462;52.148;7.940;2022-12-07T13:46:49;6.93;;;1.10;;
76582;SDS011;65462;52.148;7.940;2022-12-07T13:49:23;3.83;;;1.10;;
76582;SDS011;65462;52.148;7.940;2022-12-07T13:51:51;4.53;;;1.20;;
76582;SDS011;65462;52.148;7.940;2022-12-07T13:54:17;4.87;;;1.20;;
76582;SDS011;65462;52.148;7.940;2022-12-07T13:56:43;4.70;;;1.40;;
76582;SDS011;65462;52.148;7.940;2022-12-07T13:59:18;4.47;;;1.23;;
76582;SDS011;65462;52.148;7.940;2022-12-07T14:01:46;5.60;;;0.90;;
76582;SDS011;65462;52.148;7.940;2022-12-07T14:04:46;3.43;;;0.93;;
76582;SDS011;65462;52.148;7.940;2022-12-07T14:09:54;7.43;;;1.20;;
76582;SDS011;65462;52.148;7.940;2022-12-07T14:12:20;4.83;;;1.10;;
76582;SDS011;65462;52.148;7.940;2022-12-07T14:14:47;8.43;;;1.77;;
76582;SDS011;65462;52.148;7.940;2022-12-07T14:17:20;5.27;;;1.07;;
76582;SDS011;65462;52.148;7.940;2022-12-07T14:22:19;4.53;;;1.10;;
76582;SDS011;65462;52.148;7.940;2022-12-07T14:24:49;6.47;;;0.90;;
76582;SDS011;65462;52.148;7.940;2022-12-07T14:27:24;7.17;;;1.43;;
76582;SDS011;65462;52.148;7.940;2022-12-07T14:29:55;5.07;;;1.40;;
76582;SDS011;65462;52.148;7.940;2022-12-07T14:32:25;5.20;;;0.97;;
76582;SDS011;65462;52.148;7.940;2022-12-07T14:34:57;6.53;;;1.13;;
76582;SDS011;65462;52.148;7.940;2022-12-07T14:37:25;3.17;;;0.80;;
76582;SDS011;65462;52.148;7.940;2022-12-07T14:39:51;5.60;;;1.17;;
76582;SDS011;65462;52.148;7.940;2022-12-07T14:42:17;3.43;;;0.73;;
76582;SDS011;65462;52.148;7.940;2022-12-07T14:44:42;4.80;;;1.13;;
76582;SDS011;65462;52.148;7.940;2022-12-07T14:47:11;3.53;;;1.10;;
76582;SDS011;65462;52.148;7.940;2022-12-07T14:49:37;4.27;;;1.10;;
76582;SDS011;65462;52.148;7.940;2022-12-07T14:52:02;4.63;;;0.90;;
76582;SDS011;65462;52.148;7.940;2022-12-07T14:54:31;8.17;;;1.37;;
76582;SDS011;65462;52.148;7.940;2022-12-07T14:56:57;3.63;;;1.20;;
76582;SDS011;65462;52.148;7.940;2022-12-07T14:59:23;4.57;;;1.27;;
76582;SDS011;65462;52.148;7.940;2022-12-07T15:01:49;5.83;;;1.60;;
76582;SDS011;65462;52.148;7.940;2022-12-07T15:04:14;2.47;;;1.00;;
76582;SDS011;65462;52.148;7.940;2022-12-07T15:06:39;3.33;;;0.97;;
76582;SDS011;65462;52.148;7.940;2022-12-07T15:09:08;5.20;;;1.23;;
76582;SDS011;65462;52.148;7.940;2022-12-07T15:11:33;5.77;;;1.13;;
76582;SDS011;65462;52.148;7.940;2022-12-07T15:13:59;5.77;;;1.33;;
76582;SDS011;65462;52.148;7.940;2022-12-07T15:16:33;4.38;;;1.13;;
76582;SDS011;65462;52.148;7.940;2022-12-07T15:19:00;10.87;;;1.47;;
76582;SDS011;65462;52.148;7.940;2022-12-07T15:21:26;3.60;;;1.03;;
76582;SDS011;65462;52.148;7.940;2022-12-07T15:23:51;3.33;;;0.80;;
76582;SDS011;65462;52.148;7.940;2022-12-07T15:26:16;5.63;;;1.00;;
76582;SDS011;65462;52.148;7.940;2022-12-07T15:28:42;4.07;;;1.10;;
76582;SDS011;65462;52.148;7.940;2022-12-07T15:31:14;5.67;;;1.13;;
76582;SDS011;65462;52.148;7.940;2022-12-07T15:33:40;1.87;;;0.90;;
76582;SDS011;65462;52.148;7.940;2022-12-07T15:36:06;5.40;;;1.00;;
76582;SDS011;65462;52.148;7.940;2022-12-07T15:38:32;4.60;;;1.00;;
76582;SDS011;65462;52.148;7.940;2022-12-07T15:40:57;2.83;;;1.00;;
76582;SDS011;65462;52.148;7.940;2022-12-07T15:43:23;5.67;;;1.20;;
76582;SDS011;65462;52.148;7.940;2022-12-07T15:46:07;4.10;;;1.23;;
76582;SDS011;65462;52.148;7.940;2022-12-07T15:48:32;4.63;;;1.00;;
76582;SDS011;65462;52.148;7.940;2022-12-07T15:51:04;6.33;;;1.30;;
76582;SDS011;65462;52.148;7.940;2022-12-07T15:53:43;4.73;;;0.90;;
76582;SDS011;65462;52.148;7.940;2022-12-07T15:56:14;2.37;;;1.00;;
76582;SDS011;65462;52.148;7.940;2022-12-07T15:58:39;6.87;;;1.07;;
76582;SDS011;65462;52.148;7.940;2022-12-07T16:01:15;4.77;;;1.10;;
76582;SDS011;65462;52.148;7.940;2022-12-07T16:03:42;4.00;;;1.17;;
76582;SDS011;65462;52.148;7.940;2022-12-07T16:06:08;3.10;;;1.20;;
76582;SDS011;65462;52.148;7.940;2022-12-07T16:08:33;3.23;;;1.07;;
76582;SDS011;65462;52.148;7.940;2022-12-07T16:10:59;5.37;;;1.30;;
76582;SDS011;65462;52.148;7.940;2022-12-07T16:13:24;4.30;;;1.30;;
76582;SDS011;65462;52.148;7.940;2022-12-07T16:15:50;3.23;;;1.17;;
76582;SDS011;65462;52.148;7.940;2022-12-07T16:18:15;3.70;;;1.13;;
76582;SDS011;65462;52.148;7.940;2022-12-07T16:20:40;2.60;;;1.20;;
76582;SDS011;65462;52.148;7.940;2022-12-07T16:23:06;7.73;;;1.20;;
76582;SDS011;65462;52.148;7.940;2022-12-07T16:25:32;5.43;;;1.20;;
76582;SDS011;65462;52.148;7.940;2022-12-07T16:27:57;7.53;;;1.50;;
76582;SDS011;65462;52.148;7.940;2022-12-07T16:30:23;3.60;;;1.33;;
76582;SDS011;65462;52.148;7.940;2022-12-07T16:32:48;6.13;;;1.17;;
76582;SDS011;65462;52.148;7.940;2022-12-07T16:35:13;10.33;;;1.87;;
76582;SDS011;65462;52.148;7.940;2022-12-07T16:37:38;2.10;;;1.10;;
76582;SDS011;65462;52.148;7.940;2022-12-07T16:40:06;4.57;;;1.20;;
76582;SDS011;65462;52.148;7.940;2022-12-07T16:42:33;4.10;;;1.40;;
76582;SDS011;65462;52.148;7.940;2022-12-07T16:44:59;4.73;;;1.50;;
76582;SDS011;65462;52.148;7.940;2022-12-07T16:47:25;6.27;;;1.20;;
76582;SDS011;65462;52.148;7.940;2022-12-07T16:49:50;2.20;;;1.10;;